createdAt,value
2015-04-24T00:00:02.165Z,95644
2015-04-24T00:00:20.634Z,95641
2015-04-24T00:00:39.089Z,95636
2015-04-24T00:00:57.464Z,95647
2015-04-24T00:01:16.152Z,95639
2015-04-24T00:01:34.936Z,95639
2015-04-24T00:01:53.342Z,95639
2015-04-24T00:02:12.108Z,95642
2015-04-24T00:02:30.811Z,95639
2015-04-24T00:02:49.189Z,95634
2015-04-24T00:03:07.736Z,95642
2015-04-24T00:03:26.298Z,95642
2015-04-24T00:03:44.830Z,95640
2015-04-24T00:04:03.488Z,95645
2015-04-24T00:04:21.878Z,95645
2015-04-24T00:04:40.425Z,95634
2015-04-24T00:04:59.225Z,95645
2015-04-24T00:05:17.803Z,95637
2015-04-24T00:05:36.694Z,95643
2015-04-24T00:05:55.477Z,95634
2015-04-24T00:06:14.040Z,95640
2015-04-24T00:06:32.571Z,95643
2015-04-24T00:06:50.977Z,95649
2015-04-24T00:07:09.761Z,95654
2015-04-24T00:07:28.386Z,95637
2015-04-24T00:07:47.433Z,95635
2015-04-24T00:08:05.873Z,95643
2015-04-24T00:08:24.263Z,95646
2015-04-24T00:08:43.013Z,95646
2015-04-24T00:09:01.748Z,95638
2015-04-24T00:09:20.204Z,95643
2015-04-24T00:09:38.688Z,95646
2015-04-24T00:09:57.313Z,95646
2015-04-24T00:10:15.766Z,95646
2015-04-24T00:10:34.519Z,95643
2015-04-24T00:10:52.941Z,95643
2015-04-24T00:11:11.535Z,95643
2015-04-24T00:11:29.990Z,95652
2015-04-24T00:11:48.584Z,95646
2015-04-24T00:12:07.287Z,95644
2015-04-24T00:12:25.820Z,95646
2015-04-24T00:12:44.430Z,95641
2015-04-24T00:13:02.820Z,95644
2015-04-24T00:13:21.758Z,95644
2015-04-24T00:13:40.135Z,95644
2015-04-24T00:13:58.947Z,95644
2015-04-24T00:14:17.416Z,95649
2015-04-24T00:14:36.060Z,95649
2015-04-24T00:14:54.778Z,95649
2015-04-24T00:15:13.247Z,95644
2015-04-24T00:15:31.778Z,95644
2015-04-24T00:15:50.406Z,95644
2015-04-24T00:16:09.266Z,95641
2015-04-24T00:16:28.000Z,95644
2015-04-24T00:16:46.612Z,95641
2015-04-24T00:17:05.268Z,95644
2015-04-24T00:17:23.799Z,95644
2015-04-24T00:17:42.299Z,95644
2015-04-24T00:18:00.910Z,95639
2015-04-24T00:18:19.379Z,95647
2015-04-24T00:18:37.754Z,95639
2015-04-24T00:18:56.285Z,95636
2015-04-24T00:19:14.663Z,95644
2015-04-24T00:19:33.288Z,95644
2015-04-24T00:19:51.867Z,95642
2015-04-24T00:20:10.556Z,95642
2015-04-24T00:20:28.947Z,95644
2015-04-24T00:20:47.369Z,95642
2015-04-24T00:21:06.387Z,95642
2015-04-24T00:21:24.965Z,95645
2015-04-24T00:21:43.372Z,95642
2015-04-24T00:22:01.872Z,95639
2015-04-24T00:22:20.281Z,95650
2015-04-24T00:22:38.671Z,95633
2015-04-24T00:22:57.062Z,95642
2015-04-24T00:23:15.546Z,95645
2015-04-24T00:23:34.017Z,95642
2015-04-24T00:23:52.408Z,95636
2015-04-24T00:24:11.127Z,95642
2015-04-24T00:24:29.535Z,95645
2015-04-24T00:24:48.097Z,95647
2015-04-24T00:25:06.707Z,95636
2015-04-24T00:25:25.175Z,95633
2015-04-24T00:25:43.600Z,95633
2015-04-24T00:26:02.241Z,95636
2015-04-24T00:26:20.772Z,95636
2015-04-24T00:26:39.165Z,95642
2015-04-24T00:26:57.665Z,95628
2015-04-24T00:27:16.118Z,95634
2015-04-24T00:27:34.727Z,95634
2015-04-24T00:27:53.277Z,95634
2015-04-24T00:28:11.840Z,95634
2015-04-24T00:28:30.293Z,95636
2015-04-24T00:28:48.733Z,95637
2015-04-24T00:29:07.358Z,95636
2015-04-24T00:29:26.296Z,95631
2015-04-24T00:29:45.017Z,95631
2015-04-24T00:30:03.782Z,95630
2015-04-24T00:30:22.642Z,95630
2015-04-24T00:30:41.220Z,95628
2015-04-24T00:30:59.612Z,95633
2015-04-24T00:31:18.144Z,95633
2015-04-24T00:31:36.659Z,95627
2015-04-24T00:31:55.381Z,95622
2015-04-24T00:32:14.350Z,95630
2015-04-24T00:32:32.928Z,95627
2015-04-24T00:32:51.399Z,95633
2015-04-24T00:33:09.789Z,95632
2015-04-24T00:33:28.289Z,95633
2015-04-24T00:33:46.742Z,95629
2015-04-24T00:34:05.402Z,95635
2015-04-24T00:34:23.823Z,95629
2015-04-24T00:34:42.433Z,95627
2015-04-24T00:35:01.011Z,95624
2015-04-24T00:35:19.560Z,95632
2015-04-24T00:35:38.169Z,95627
2015-04-24T00:35:56.747Z,95629
2015-04-24T00:36:15.219Z,95624
2015-04-24T00:36:33.797Z,95627
2015-04-24T00:36:52.438Z,95627
2015-04-24T00:37:10.907Z,95629
2015-04-24T00:37:29.612Z,95629
2015-04-24T00:37:48.362Z,95629
2015-04-24T00:38:06.940Z,95618
2015-04-24T00:38:25.536Z,95623
2015-04-24T00:38:43.973Z,95621
2015-04-24T00:39:02.661Z,95621
2015-04-24T00:39:21.242Z,95621
2015-04-24T00:39:39.664Z,95621
2015-04-24T00:39:58.257Z,95620
2015-04-24T00:40:16.867Z,95623
2015-04-24T00:40:35.557Z,95620
2015-04-24T00:40:54.448Z,95618
2015-04-24T00:41:13.088Z,95612
2015-04-24T00:41:31.794Z,95623
2015-04-24T00:41:50.262Z,95620
2015-04-24T00:42:08.919Z,95620
2015-04-24T00:42:27.465Z,95615
2015-04-24T00:42:46.077Z,95626
2015-04-24T00:43:04.842Z,95632
2015-04-24T00:43:23.686Z,95626
2015-04-24T00:43:42.158Z,95626
2015-04-24T00:44:00.830Z,95615
2015-04-24T00:44:19.361Z,95617
2015-04-24T00:44:37.814Z,95618
2015-04-24T00:44:56.427Z,95621
2015-04-24T00:45:15.083Z,95618
2015-04-24T00:45:33.536Z,95612
2015-04-24T00:45:51.942Z,95618
2015-04-24T00:46:10.491Z,95621
2015-04-24T00:46:29.460Z,95621
2015-04-24T00:46:48.054Z,95615
2015-04-24T00:47:06.635Z,95618
2015-04-24T00:47:25.119Z,95615
2015-04-24T00:47:43.619Z,95626
2015-04-24T00:48:02.088Z,95621
2015-04-24T00:48:20.496Z,95626
2015-04-24T00:48:39.371Z,95621
2015-04-24T00:48:58.027Z,95627
2015-04-24T00:49:16.951Z,95627
2015-04-24T00:49:35.545Z,95624
2015-04-24T00:49:54.029Z,95619
2015-04-24T00:50:12.579Z,95622
2015-04-24T00:50:31.157Z,95619
2015-04-24T00:50:49.751Z,95616
2015-04-24T00:51:08.220Z,95610
2015-04-24T00:51:26.879Z,95610
2015-04-24T00:51:45.317Z,95616
2015-04-24T00:52:03.863Z,95621
2015-04-24T00:52:22.410Z,95607
2015-04-24T00:52:41.022Z,95618
2015-04-24T00:52:59.819Z,95607
2015-04-24T00:53:18.397Z,95610
2015-04-24T00:53:37.040Z,95610
2015-04-24T00:53:55.493Z,95607
2015-04-24T00:54:14.259Z,95613
2015-04-24T00:54:32.743Z,95616
2015-04-24T00:54:51.465Z,95605
2015-04-24T00:55:09.856Z,95616
2015-04-24T00:55:28.371Z,95608
2015-04-24T00:55:46.889Z,95607
2015-04-24T00:56:05.498Z,95603
2015-04-24T00:56:23.936Z,95605
2015-04-24T00:56:42.342Z,95610
2015-04-24T00:57:00.939Z,95605
2015-04-24T00:57:19.720Z,95605
2015-04-24T00:57:38.361Z,95600
2015-04-24T00:57:57.206Z,95605
2015-04-24T00:58:15.721Z,95605
2015-04-24T00:58:34.284Z,95610
2015-04-24T00:58:52.677Z,95608
2015-04-24T00:59:11.115Z,95600
2015-04-24T00:59:29.693Z,95605
2015-04-24T00:59:48.287Z,95600
2015-04-24T01:00:06.883Z,95597
2015-04-24T01:00:25.618Z,95605
2015-04-24T01:00:44.024Z,95605
2015-04-24T01:01:02.524Z,95597
2015-04-24T01:01:21.135Z,95597
2015-04-24T01:01:39.682Z,95600
2015-04-24T01:01:58.182Z,95591
2015-04-24T01:02:16.748Z,95591
2015-04-24T01:02:35.295Z,95599
2015-04-24T01:02:53.748Z,95596
2015-04-24T01:03:12.326Z,95602
2015-04-24T01:03:31.344Z,95596
2015-04-24T01:03:49.734Z,95596
2015-04-24T01:04:08.234Z,95590
2015-04-24T01:04:26.861Z,95585
2015-04-24T01:04:45.439Z,95599
2015-04-24T01:05:04.221Z,95596
2015-04-24T01:05:22.833Z,95590
2015-04-24T01:05:41.520Z,95585
2015-04-24T01:06:00.067Z,95585
2015-04-24T01:06:18.895Z,95587
2015-04-24T01:06:37.383Z,95587
2015-04-24T01:06:55.852Z,95581
2015-04-24T01:07:14.336Z,95584
2015-04-24T01:07:32.742Z,95581
2015-04-24T01:07:51.322Z,95587
2015-04-24T01:08:09.791Z,95589
2015-04-24T01:08:28.525Z,95578
2015-04-24T01:08:47.121Z,95584
2015-04-24T01:09:05.574Z,95581
2015-04-24T01:09:24.168Z,95592
2015-04-24T01:09:42.952Z,95586
2015-04-24T01:10:01.327Z,95581
2015-04-24T01:10:19.921Z,95589
2015-04-24T01:10:38.546Z,95595
2015-04-24T01:10:56.955Z,95587
2015-04-24T01:11:15.549Z,95590
2015-04-24T01:11:34.143Z,95587
2015-04-24T01:11:53.035Z,95590
2015-04-24T01:12:11.645Z,95579
2015-04-24T01:12:30.317Z,95590
2015-04-24T01:12:49.176Z,95585
2015-04-24T01:13:07.834Z,95596
2015-04-24T01:13:26.256Z,95594
2015-04-24T01:13:44.709Z,95586
2015-04-24T01:14:03.305Z,95580
2015-04-24T01:14:21.852Z,95583
2015-04-24T01:14:40.414Z,95586
2015-04-24T01:14:59.136Z,95583
2015-04-24T01:15:17.527Z,95586
2015-04-24T01:15:36.230Z,95581
2015-04-24T01:15:54.683Z,95589
2015-04-24T01:16:13.326Z,95590
2015-04-24T01:16:31.716Z,95587
2015-04-24T01:16:50.216Z,95570
2015-04-24T01:17:09.266Z,95573
2015-04-24T01:17:28.204Z,95584
2015-04-24T01:17:46.641Z,95584
2015-04-24T01:18:05.235Z,95581
2015-04-24T01:18:23.957Z,95587
2015-04-24T01:18:42.488Z,95581
2015-04-24T01:19:01.019Z,95578
2015-04-24T01:19:19.756Z,95578
2015-04-24T01:19:38.334Z,95587
2015-04-24T01:19:56.990Z,95586
2015-04-24T01:20:15.818Z,95589
2015-04-24T01:20:34.384Z,95589
2015-04-24T01:20:53.024Z,95598
2015-04-24T01:21:11.493Z,95595
2015-04-24T01:21:30.073Z,95592
2015-04-24T01:21:48.807Z,95586
2015-04-24T01:22:07.448Z,95592
2015-04-24T01:22:26.217Z,95591
2015-04-24T01:22:44.795Z,95586
2015-04-24T01:23:03.295Z,95600
2015-04-24T01:23:21.857Z,95602
2015-04-24T01:23:40.359Z,95591
2015-04-24T01:23:59.000Z,95596
2015-04-24T01:24:17.656Z,95587
2015-04-24T01:24:36.549Z,95601
2015-04-24T01:24:54.924Z,95599
2015-04-24T01:25:13.471Z,95604
2015-04-24T01:25:31.861Z,95601
2015-04-24T01:25:50.489Z,95595
2015-04-24T01:26:09.364Z,95604
2015-04-24T01:26:28.208Z,95601
2015-04-24T01:26:46.866Z,95603
2015-04-24T01:27:05.398Z,95603
2015-04-24T01:27:23.773Z,95608
2015-04-24T01:27:42.366Z,95603
2015-04-24T01:28:00.916Z,95598
2015-04-24T01:28:19.463Z,95601
2015-04-24T01:28:38.119Z,95601
2015-04-24T01:28:56.700Z,95592
2015-04-24T01:29:15.091Z,95598
2015-04-24T01:29:33.700Z,95598
2015-04-24T01:29:52.372Z,95592
2015-04-24T01:30:10.812Z,95601
2015-04-24T01:30:29.484Z,95598
2015-04-24T01:30:47.921Z,95598
2015-04-24T01:31:06.374Z,95595
2015-04-24T01:31:24.877Z,95608
2015-04-24T01:31:42.784Z,95601
2015-04-24T01:32:01.362Z,95601
2015-04-24T01:32:19.864Z,95606
2015-04-24T01:32:38.270Z,95601
2015-04-24T01:32:56.895Z,95598
2015-04-24T01:33:15.332Z,95606
2015-04-24T01:33:33.960Z,95604
2015-04-24T01:33:52.398Z,95598
2015-04-24T01:34:11.195Z,95601
2015-04-24T01:34:29.744Z,95611
2015-04-24T01:34:48.181Z,95601
2015-04-24T01:35:06.822Z,95606
2015-04-24T01:35:25.384Z,95611
2015-04-24T01:35:44.199Z,95601
2015-04-24T01:36:02.839Z,95606
2015-04-24T01:36:21.480Z,95612
2015-04-24T01:36:39.935Z,95601
2015-04-24T01:36:58.701Z,95606
2015-04-24T01:37:17.107Z,95604
2015-04-24T01:37:35.860Z,95606
2015-04-24T01:37:54.391Z,95590
2015-04-24T01:38:13.110Z,95604
2015-04-24T01:38:31.516Z,95596
2015-04-24T01:38:50.051Z,95596
2015-04-24T01:39:08.676Z,95604
2015-04-24T01:39:27.316Z,95602
2015-04-24T01:39:45.832Z,95605
2015-04-24T01:40:04.486Z,95599
2015-04-24T01:40:22.908Z,95602
2015-04-24T01:40:41.361Z,95596
2015-04-24T01:41:00.066Z,95605
2015-04-24T01:41:18.535Z,95605
2015-04-24T01:41:37.050Z,95605
2015-04-24T01:41:55.863Z,95610
2015-04-24T01:42:14.535Z,95610
2015-04-24T01:42:32.926Z,95605
2015-04-24T01:42:51.348Z,95607
2015-04-24T01:43:09.772Z,95602
2015-04-24T01:43:28.162Z,95600
2015-04-24T01:43:46.850Z,95600
2015-04-24T01:44:05.506Z,95600
2015-04-24T01:44:24.020Z,95600
2015-04-24T01:44:42.520Z,95594
2015-04-24T01:45:01.020Z,95600
2015-04-24T01:45:19.433Z,95610
2015-04-24T01:45:37.933Z,95597
2015-04-24T01:45:56.777Z,95592
2015-04-24T01:46:15.222Z,95592
2015-04-24T01:46:33.612Z,95597
2015-04-24T01:46:52.019Z,95597
2015-04-24T01:47:10.597Z,95600
2015-04-24T01:47:29.106Z,95595
2015-04-24T01:47:47.731Z,95600
2015-04-24T01:48:06.340Z,95597
2015-04-24T01:48:24.856Z,95600
2015-04-24T01:48:43.440Z,95595
2015-04-24T01:49:01.971Z,95595
2015-04-24T01:49:20.471Z,95592
2015-04-24T01:49:39.055Z,95597
2015-04-24T01:49:57.524Z,95600
2015-04-24T01:50:16.040Z,95611
2015-04-24T01:50:34.415Z,95600
2015-04-24T01:50:52.841Z,95592
2015-04-24T01:51:11.388Z,95600
2015-04-24T01:51:30.326Z,95595
2015-04-24T01:51:48.720Z,95595
2015-04-24T01:52:07.314Z,95600
2015-04-24T01:52:25.767Z,95600
2015-04-24T01:52:44.095Z,95592
2015-04-24T01:53:03.193Z,95595
2015-04-24T01:53:21.662Z,95605
2015-04-24T01:53:40.193Z,95600
2015-04-24T01:53:58.587Z,95600
2015-04-24T01:54:17.602Z,95595
2015-04-24T01:54:36.009Z,95589
2015-04-24T01:54:54.450Z,95586
2015-04-24T01:55:12.919Z,95598
2015-04-24T01:55:31.403Z,95595
2015-04-24T01:55:49.841Z,95603
2015-04-24T01:56:08.375Z,95598
2015-04-24T01:56:26.922Z,95592
2015-04-24T01:56:45.531Z,95598
2015-04-24T01:57:03.953Z,95598
2015-04-24T01:57:22.457Z,95589
2015-04-24T01:57:40.942Z,95598
2015-04-24T01:57:59.520Z,95587
2015-04-24T01:58:18.054Z,95595
2015-04-24T01:58:36.491Z,95598
2015-04-24T01:58:54.898Z,95598
2015-04-24T01:59:13.460Z,95593
2015-04-24T01:59:31.949Z,95606
2015-04-24T01:59:50.386Z,95595
2015-04-24T02:00:09.105Z,95590
2015-04-24T02:00:27.577Z,95601
2015-04-24T02:00:45.967Z,95604
2015-04-24T02:01:04.452Z,95593
2015-04-24T02:01:22.889Z,95593
2015-04-24T02:01:41.297Z,95590
2015-04-24T02:01:59.985Z,95606
2015-04-24T02:02:18.594Z,95593
2015-04-24T02:02:37.144Z,95601
2015-04-24T02:02:55.863Z,95604
2015-04-24T02:03:14.457Z,95606
2015-04-24T02:03:32.960Z,95599
2015-04-24T02:03:51.522Z,95604
2015-04-24T02:04:10.288Z,95606
2015-04-24T02:04:28.772Z,95599
2015-04-24T02:04:47.180Z,95604
2015-04-24T02:05:05.727Z,95602
2015-04-24T02:05:24.165Z,95596
2015-04-24T02:05:42.602Z,95596
2015-04-24T02:06:01.136Z,95594
2015-04-24T02:06:19.543Z,95602
2015-04-24T02:06:38.215Z,95599
2015-04-24T02:06:56.795Z,95605
2015-04-24T02:07:15.467Z,95599
2015-04-24T02:07:34.170Z,95597
2015-04-24T02:07:52.560Z,95591
2015-04-24T02:08:10.954Z,95597
2015-04-24T02:08:29.360Z,95600
2015-04-24T02:08:47.954Z,95600
2015-04-24T02:09:06.488Z,95602
2015-04-24T02:09:24.910Z,95597
2015-04-24T02:09:43.332Z,95591
2015-04-24T02:10:01.785Z,95600
2015-04-24T02:10:20.318Z,95597
2015-04-24T02:10:38.771Z,95597
2015-04-24T02:10:57.271Z,95594
2015-04-24T02:11:15.852Z,95600
2015-04-24T02:11:34.570Z,95600
2015-04-24T02:11:52.961Z,95592
2015-04-24T02:12:11.776Z,95589
2015-04-24T02:12:30.339Z,95600
2015-04-24T02:12:49.136Z,95600
2015-04-24T02:13:07.714Z,95595
2015-04-24T02:13:26.279Z,95603
2015-04-24T02:13:44.920Z,95595
2015-04-24T02:14:03.545Z,95595
2015-04-24T02:14:22.063Z,95584
2015-04-24T02:14:40.563Z,95581
2015-04-24T02:14:58.953Z,95605
2015-04-24T02:15:17.828Z,95600
2015-04-24T02:15:36.299Z,95589
2015-04-24T02:15:54.705Z,95595
2015-04-24T02:16:13.143Z,95597
2015-04-24T02:16:31.799Z,95589
2015-04-24T02:16:50.365Z,95589
2015-04-24T02:17:08.755Z,95589
2015-04-24T02:17:27.224Z,95589
2015-04-24T02:17:45.618Z,95583
2015-04-24T02:18:03.368Z,95589
2015-04-24T02:18:21.789Z,95592
2015-04-24T02:18:40.211Z,95586
2015-04-24T02:18:58.635Z,95589
2015-04-24T02:19:17.104Z,95583
2015-04-24T02:19:35.541Z,95589
2015-04-24T02:19:53.997Z,95583
2015-04-24T02:20:12.450Z,95597
2015-04-24T02:20:30.918Z,95594
2015-04-24T02:20:49.418Z,95589
2015-04-24T02:21:07.842Z,95597
2015-04-24T02:21:26.374Z,95589
2015-04-24T02:21:44.795Z,95594
2015-04-24T02:22:03.392Z,95583
2015-04-24T02:22:21.767Z,95588
2015-04-24T02:22:40.392Z,95588
2015-04-24T02:22:59.083Z,95577
2015-04-24T02:23:17.520Z,95586
2015-04-24T02:23:35.958Z,95591
2015-04-24T02:23:54.380Z,95591
2015-04-24T02:24:12.960Z,95594
2015-04-24T02:24:31.522Z,95580
2015-04-24T02:24:50.085Z,95586
2015-04-24T02:25:08.602Z,95591
2015-04-24T02:25:26.993Z,95591
2015-04-24T02:25:45.446Z,95591
2015-04-24T02:26:04.024Z,95591
2015-04-24T02:26:22.480Z,95588
2015-04-24T02:26:40.199Z,95586
2015-04-24T02:26:58.621Z,95588
2015-04-24T02:27:17.074Z,95591
2015-04-24T02:27:35.452Z,95591
2015-04-24T02:27:53.983Z,95588
2015-04-24T02:28:12.577Z,95591
2015-04-24T02:28:31.063Z,95586
2015-04-24T02:28:49.735Z,95602
2015-04-24T02:29:08.204Z,95589
2015-04-24T02:29:26.782Z,95597
2015-04-24T02:29:45.378Z,95591
2015-04-24T02:30:04.034Z,95597
2015-04-24T02:30:22.644Z,95594
2015-04-24T02:30:41.287Z,95589
2015-04-24T02:30:59.756Z,95597
2015-04-24T02:31:18.334Z,95603
2015-04-24T02:31:36.818Z,95597
2015-04-24T02:31:55.258Z,95592
2015-04-24T02:32:13.774Z,95605
2015-04-24T02:32:32.180Z,95600
2015-04-24T02:32:50.620Z,95600
2015-04-24T02:33:09.230Z,95605
2015-04-24T02:33:27.730Z,95595
2015-04-24T02:33:46.120Z,95605
2015-04-24T02:34:04.514Z,95608
2015-04-24T02:34:22.967Z,95603
2015-04-24T02:34:41.373Z,95603
2015-04-24T02:34:59.860Z,95605
2015-04-24T02:35:18.407Z,95608
2015-04-24T02:35:37.000Z,95608
2015-04-24T02:35:55.485Z,95604
2015-04-24T02:36:14.174Z,95608
2015-04-24T02:36:32.768Z,95608
2015-04-24T02:36:51.424Z,95614
2015-04-24T02:37:10.068Z,95608
2015-04-24T02:37:28.740Z,95611
2015-04-24T02:37:47.365Z,95598
2015-04-24T02:38:06.415Z,95601
2015-04-24T02:38:24.977Z,95606
2015-04-24T02:38:43.493Z,95612
2015-04-24T02:39:01.993Z,95606
2015-04-24T02:39:20.417Z,95606
2015-04-24T02:39:39.182Z,95601
2015-04-24T02:39:57.573Z,95606
2015-04-24T02:40:16.373Z,95609
2015-04-24T02:40:35.123Z,95606
2015-04-24T02:40:53.545Z,95609
2015-04-24T02:41:11.920Z,95609
2015-04-24T02:41:30.453Z,95615
2015-04-24T02:41:49.156Z,95609
2015-04-24T02:42:07.968Z,95607
2015-04-24T02:42:26.862Z,95605
2015-04-24T02:42:45.268Z,95615
2015-04-24T02:43:03.925Z,95605
2015-04-24T02:43:22.565Z,95610
2015-04-24T02:43:41.192Z,95605
2015-04-24T02:43:59.661Z,95599
2015-04-24T02:44:18.255Z,95607
2015-04-24T02:44:36.739Z,95605
2015-04-24T02:44:55.413Z,95612
2015-04-24T02:45:14.147Z,95618
2015-04-24T02:45:32.725Z,95602
2015-04-24T02:45:51.447Z,95607
2015-04-24T02:46:10.041Z,95607
2015-04-24T02:46:28.619Z,95605
2015-04-24T02:46:47.166Z,95602
2015-04-24T02:47:05.309Z,95605
2015-04-24T02:47:23.918Z,95605
2015-04-24T02:47:42.340Z,95615
2015-04-24T02:48:00.749Z,95607
2015-04-24T02:48:19.187Z,95610
2015-04-24T02:48:37.999Z,95613
2015-04-24T02:48:56.390Z,95610
2015-04-24T02:49:15.001Z,95615
2015-04-24T02:49:33.439Z,95610
2015-04-24T02:49:52.142Z,95594
2015-04-24T02:50:10.879Z,95615
2015-04-24T02:50:29.379Z,95613
2015-04-24T02:50:47.973Z,95605
2015-04-24T02:51:06.504Z,95605
2015-04-24T02:51:24.929Z,95605
2015-04-24T02:51:43.351Z,95605
2015-04-24T02:52:01.898Z,95605
2015-04-24T02:52:20.603Z,95615
2015-04-24T02:52:39.243Z,95607
2015-04-24T02:52:57.665Z,95605
2015-04-24T02:53:16.292Z,95615
2015-04-24T02:53:34.980Z,95605
2015-04-24T02:53:53.558Z,95605
2015-04-24T02:54:12.011Z,95605
2015-04-24T02:54:30.686Z,95607
2015-04-24T02:54:49.358Z,95597
2015-04-24T02:55:07.967Z,95603
2015-04-24T02:55:26.455Z,95610
2015-04-24T02:55:45.173Z,95607
2015-04-24T02:56:03.564Z,95597
2015-04-24T02:56:22.048Z,95600
2015-04-24T02:56:40.519Z,95589
2015-04-24T02:56:58.910Z,95603
2015-04-24T02:57:17.316Z,95597
2015-04-24T02:57:35.832Z,95600
2015-04-24T02:57:54.365Z,95605
2015-04-24T02:58:12.818Z,95597
2015-04-24T02:58:31.740Z,95594
2015-04-24T02:58:50.133Z,95600
2015-04-24T02:59:08.508Z,95592
2015-04-24T02:59:27.024Z,95594
2015-04-24T02:59:45.493Z,95583
2015-04-24T03:00:04.043Z,95603
2015-04-24T03:00:22.465Z,95592
2015-04-24T03:00:40.949Z,95594
2015-04-24T03:00:59.685Z,95592
2015-04-24T03:01:18.279Z,95589
2015-04-24T03:01:36.873Z,95586
2015-04-24T03:01:55.390Z,95592
2015-04-24T03:02:13.828Z,95597
2015-04-24T03:02:32.328Z,95597
2015-04-24T03:02:50.719Z,95589
2015-04-24T03:03:09.159Z,95586
2015-04-24T03:03:27.550Z,95586
2015-04-24T03:03:46.190Z,95586
2015-04-24T03:04:04.942Z,95589
2015-04-24T03:04:23.380Z,95597
2015-04-24T03:04:42.130Z,95595
2015-04-24T03:05:00.536Z,95592
2015-04-24T03:05:18.930Z,95600
2015-04-24T03:05:37.602Z,95597
2015-04-24T03:05:56.180Z,95595
2015-04-24T03:06:14.570Z,95586
2015-04-24T03:06:33.041Z,95589
2015-04-24T03:06:51.416Z,95595
2015-04-24T03:07:10.010Z,95581
2015-04-24T03:07:28.622Z,95578
2015-04-24T03:07:47.216Z,95581
2015-04-24T03:08:05.982Z,95584
2015-04-24T03:08:24.577Z,95587
2015-04-24T03:08:43.077Z,95584
2015-04-24T03:09:01.765Z,95584
2015-04-24T03:09:20.468Z,95581
2015-04-24T03:09:38.987Z,95587
2015-04-24T03:09:57.533Z,95584
2015-04-24T03:10:16.080Z,95592
2015-04-24T03:10:34.643Z,95590
2015-04-24T03:10:53.161Z,95590
2015-04-24T03:11:11.552Z,95590
2015-04-24T03:11:30.021Z,95590
2015-04-24T03:11:48.695Z,95593
2015-04-24T03:12:07.398Z,95595
2015-04-24T03:12:26.007Z,95595
2015-04-24T03:12:44.587Z,95593
2015-04-24T03:13:03.040Z,95587
2015-04-24T03:13:21.806Z,95590
2015-04-24T03:13:40.259Z,95593
2015-04-24T03:13:58.825Z,95598
2015-04-24T03:14:17.543Z,95584
2015-04-24T03:14:36.012Z,95596
2015-04-24T03:14:54.624Z,95590
2015-04-24T03:15:13.170Z,95587
2015-04-24T03:15:31.749Z,95584
2015-04-24T03:15:50.483Z,95590
2015-04-24T03:16:09.017Z,95590
2015-04-24T03:16:27.486Z,95593
2015-04-24T03:16:46.033Z,95587
2015-04-24T03:17:04.517Z,95587
2015-04-24T03:17:22.925Z,95590
2015-04-24T03:17:41.394Z,95593
2015-04-24T03:17:59.941Z,95587
2015-04-24T03:18:18.600Z,95602
2015-04-24T03:18:36.991Z,95593
2015-04-24T03:18:55.397Z,95588
2015-04-24T03:19:13.944Z,95588
2015-04-24T03:19:32.430Z,95590
2015-04-24T03:19:51.009Z,95593
2015-04-24T03:20:09.524Z,95593
2015-04-24T03:20:28.168Z,95593
2015-04-24T03:20:46.574Z,95588
2015-04-24T03:21:05.105Z,95588
2015-04-24T03:21:23.715Z,95582
2015-04-24T03:21:42.217Z,95593
2015-04-24T03:22:00.654Z,95588
2015-04-24T03:22:19.295Z,95585
2015-04-24T03:22:37.704Z,95588
2015-04-24T03:22:56.267Z,95582
2015-04-24T03:23:14.845Z,95585
2015-04-24T03:23:33.329Z,95579
2015-04-24T03:23:51.894Z,95588
2015-04-24T03:24:10.315Z,95591
2015-04-24T03:24:28.987Z,95585
2015-04-24T03:24:47.897Z,95591
2015-04-24T03:25:06.443Z,95585
2015-04-24T03:25:25.147Z,95585
2015-04-24T03:25:43.617Z,95583
2015-04-24T03:26:02.117Z,95585
2015-04-24T03:26:20.570Z,95580
2015-04-24T03:26:39.117Z,95577
2015-04-24T03:26:57.605Z,95583
2015-04-24T03:27:16.339Z,95580
2015-04-24T03:27:35.183Z,95586
2015-04-24T03:27:53.935Z,95577
2015-04-24T03:28:12.357Z,95580
2015-04-24T03:28:31.029Z,95580
2015-04-24T03:28:49.607Z,95575
2015-04-24T03:29:08.093Z,95583
2015-04-24T03:29:26.531Z,95575
2015-04-24T03:29:45.062Z,95583
2015-04-24T03:30:03.437Z,95586
2015-04-24T03:30:21.862Z,95581
2015-04-24T03:30:40.299Z,95581
2015-04-24T03:30:58.721Z,95575
2015-04-24T03:31:17.162Z,95578
2015-04-24T03:31:35.927Z,95581
2015-04-24T03:31:54.396Z,95578
2015-04-24T03:32:12.833Z,95578
2015-04-24T03:32:31.523Z,95581
2015-04-24T03:32:50.257Z,95578
2015-04-24T03:33:08.945Z,95575
2015-04-24T03:33:27.354Z,95584
2015-04-24T03:33:45.838Z,95587
2015-04-24T03:34:04.854Z,95581
2015-04-24T03:34:23.325Z,95587
2015-04-24T03:34:42.044Z,95587
2015-04-24T03:35:00.559Z,95587
2015-04-24T03:35:18.965Z,95584
2015-04-24T03:35:37.422Z,95584
2015-04-24T03:35:55.875Z,95589
2015-04-24T03:36:14.297Z,95587
2015-04-24T03:36:33.047Z,95581
2015-04-24T03:36:51.518Z,95584
2015-04-24T03:37:09.909Z,95589
2015-04-24T03:37:28.315Z,95589
2015-04-24T03:37:46.769Z,95587
2015-04-24T03:38:05.207Z,95592
2015-04-24T03:38:23.801Z,95593
2015-04-24T03:38:42.569Z,95587
2015-04-24T03:39:01.288Z,95593
2015-04-24T03:39:19.710Z,95598
2015-04-24T03:39:38.304Z,95601
2015-04-24T03:39:56.682Z,95596
2015-04-24T03:40:15.072Z,95590
2015-04-24T03:40:33.869Z,95599
2015-04-24T03:40:52.605Z,95599
2015-04-24T03:41:11.043Z,95599
2015-04-24T03:41:29.652Z,95604
2015-04-24T03:41:48.137Z,95593
2015-04-24T03:42:06.842Z,95601
2015-04-24T03:42:25.232Z,95590
2015-04-24T03:42:43.795Z,95596
2015-04-24T03:43:02.389Z,95601
2015-04-24T03:43:20.939Z,95599
2015-04-24T03:43:39.423Z,95596
2015-04-24T03:43:57.985Z,95612
2015-04-24T03:44:17.050Z,95604
2015-04-24T03:44:35.550Z,95599
2015-04-24T03:44:54.034Z,95599
2015-04-24T03:45:12.725Z,95604
2015-04-24T03:45:31.147Z,95602
2015-04-24T03:45:49.615Z,95599
2015-04-24T03:46:08.412Z,95609
2015-04-24T03:46:26.961Z,95604
2015-04-24T03:46:45.524Z,95609
2015-04-24T03:47:04.039Z,95602
2015-04-24T03:47:22.683Z,95617
2015-04-24T03:47:41.214Z,95609
2015-04-24T03:47:59.667Z,95606
2015-04-24T03:48:18.120Z,95620
2015-04-24T03:48:37.108Z,95626
2015-04-24T03:48:56.014Z,95612
2015-04-24T03:49:14.608Z,95615
2015-04-24T03:49:33.266Z,95615
2015-04-24T03:49:52.063Z,95615
2015-04-24T03:50:10.625Z,95618
2015-04-24T03:50:29.407Z,95615
2015-04-24T03:50:47.785Z,95618
2015-04-24T03:51:06.175Z,95612
2015-04-24T03:51:24.628Z,95618
2015-04-24T03:51:43.193Z,95612
2015-04-24T03:52:02.037Z,95621
2015-04-24T03:52:20.755Z,95621
2015-04-24T03:52:39.195Z,95621
2015-04-24T03:52:57.757Z,95615
2015-04-24T03:53:16.257Z,95612
2015-04-24T03:53:34.976Z,95605
2015-04-24T03:53:53.400Z,95599
2015-04-24T03:54:12.041Z,95602
2015-04-24T03:54:30.588Z,95607
2015-04-24T03:54:49.231Z,95599
2015-04-24T03:55:07.684Z,95602
2015-04-24T03:55:26.169Z,95610
2015-04-24T03:55:44.106Z,95607
2015-04-24T03:56:02.733Z,95602
2015-04-24T03:56:21.171Z,95605
2015-04-24T03:56:39.639Z,95607
2015-04-24T03:56:58.155Z,95605
2015-04-24T03:57:16.611Z,95605
2015-04-24T03:57:35.111Z,95597
2015-04-24T03:57:53.908Z,95605
2015-04-24T03:58:12.536Z,95600
2015-04-24T03:58:30.927Z,95603
2015-04-24T03:58:49.442Z,95610